sensor_id;sensor_type;location;lat;lon;timestamp;P1;durP1;ratioP1;P2;durP2;ratioP2
59569;SDS011;45393;44.646;10.900;2022-09-27T00:02:24;8.07;;;5.27;;
59569;SDS011;45393;44.646;10.900;2022-09-27T00:04:50;8.43;;;6.50;;
59569;SDS011;45393;44.646;10.900;2022-09-27T00:07:16;8.03;;;5.73;;
59569;SDS011;45393;44.646;10.900;2022-09-27T00:09:42;7.60;;;5.67;;
59569;SDS011;45393;44.646;10.900;2022-09-27T00:12:09;8.93;;;5.60;;
59569;SDS011;45393;44.646;10.900;2022-09-27T00:14:35;8.50;;;5.13;;
59569;SDS011;45393;44.646;10.900;2022-09-27T00:17:01;8.13;;;5.00;;
59569;SDS011;45393;44.646;10.900;2022-09-27T00:19:27;8.23;;;5.40;;
59569;SDS011;45393;44.646;10.900;2022-09-27T00:21:53;9.60;;;5.37;;
59569;SDS011;45393;44.646;10.900;2022-09-27T00:24:20;10.07;;;5.87;;
59569;SDS011;45393;44.646;10.900;2022-09-27T00:26:47;7.37;;;4.77;;
59569;SDS011;45393;44.646;10.900;2022-09-27T00:29:13;7.20;;;5.17;;
59569;SDS011;45393;44.646;10.900;2022-09-27T00:31:40;6.97;;;4.67;;
59569;SDS011;45393;44.646;10.900;2022-09-27T00:34:06;6.83;;;4.40;;
59569;SDS011;45393;44.646;10.900;2022-09-27T00:36:33;11.27;;;5.30;;
59569;SDS011;45393;44.646;10.900;2022-09-27T00:38:59;11.53;;;5.30;;
59569;SDS011;45393;44.646;10.900;2022-09-27T00:41:27;8.67;;;6.13;;
59569;SDS011;45393;44.646;10.900;2022-09-27T00:43:57;9.23;;;5.63;;
59569;SDS011;45393;44.646;10.900;2022-09-27T00:46:34;7.83;;;4.80;;
59569;SDS011;45393;44.646;10.900;2022-09-27T00:51:59;8.23;;;5.03;;
59569;SDS011;45393;44.646;10.900;2022-09-27T00:54:26;7.43;;;5.53;;
59569;SDS011;45393;44.646;10.900;2022-09-27T00:56:53;7.70;;;5.73;;
59569;SDS011;45393;44.646;10.900;2022-09-27T00:59:20;11.07;;;5.70;;
59569;SDS011;45393;44.646;10.900;2022-09-27T01:01:48;7.47;;;6.20;;
59569;SDS011;45393;44.646;10.900;2022-09-27T01:04:15;9.77;;;7.03;;
59569;SDS011;45393;44.646;10.900;2022-09-27T01:06:42;8.77;;;6.30;;
59569;SDS011;45393;44.646;10.900;2022-09-27T01:09:09;9.13;;;5.50;;
59569;SDS011;45393;44.646;10.900;2022-09-27T01:11:50;9.47;;;6.37;;
59569;SDS011;45393;44.646;10.900;2022-09-27T01:22:06;8.10;;;6.07;;
59569;SDS011;45393;44.646;10.900;2022-09-27T01:25:18;7.67;;;5.90;;
59569;SDS011;45393;44.646;10.900;2022-09-27T01:32:17;8.27;;;6.30;;
59569;SDS011;45393;44.646;10.900;2022-09-27T01:37:43;8.23;;;6.30;;
59569;SDS011;45393;44.646;10.900;2022-09-27T01:40:23;8.00;;;6.30;;
59569;SDS011;45393;44.646;10.900;2022-09-27T01:42:56;11.07;;;6.47;;
59569;SDS011;45393;44.646;10.900;2022-09-27T01:45:25;8.33;;;6.23;;
59569;SDS011;45393;44.646;10.900;2022-09-27T01:47:54;9.53;;;6.07;;
59569;SDS011;45393;44.646;10.900;2022-09-27T01:50:37;10.20;;;6.57;;
59569;SDS011;45393;44.646;10.900;2022-09-27T01:55:45;8.83;;;5.83;;
59569;SDS011;45393;44.646;10.900;2022-09-27T01:58:18;11.87;;;7.20;;
59569;SDS011;45393;44.646;10.900;2022-09-27T02:00:46;10.87;;;7.27;;
59569;SDS011;45393;44.646;10.900;2022-09-27T02:03:17;8.57;;;7.20;;
59569;SDS011;45393;44.646;10.900;2022-09-27T02:11:07;8.87;;;6.70;;
59569;SDS011;45393;44.646;10.900;2022-09-27T02:13:45;11.50;;;6.13;;
59569;SDS011;45393;44.646;10.900;2022-09-27T02:18:50;12.03;;;7.07;;
59569;SDS011;45393;44.646;10.900;2022-09-27T02:21:18;8.90;;;6.63;;
59569;SDS011;45393;44.646;10.900;2022-09-27T02:23:47;12.40;;;6.93;;
59569;SDS011;45393;44.646;10.900;2022-09-27T02:26:21;10.00;;;6.47;;
59569;SDS011;45393;44.646;10.900;2022-09-27T02:28:55;8.57;;;6.97;;
59569;SDS011;45393;44.646;10.900;2022-09-27T02:31:23;10.50;;;6.87;;
59569;SDS011;45393;44.646;10.900;2022-09-27T02:33:53;12.10;;;7.63;;
59569;SDS011;45393;44.646;10.900;2022-09-27T02:36:20;12.20;;;7.10;;
59569;SDS011;45393;44.646;10.900;2022-09-27T02:38:47;10.97;;;7.80;;
59569;SDS011;45393;44.646;10.900;2022-09-27T02:41:14;12.17;;;7.90;;
59569;SDS011;45393;44.646;10.900;2022-09-27T02:43:41;13.20;;;8.20;;
59569;SDS011;45393;44.646;10.900;2022-09-27T02:54:11;12.27;;;10.10;;
59569;SDS011;45393;44.646;10.900;2022-09-27T02:56:58;12.23;;;8.53;;
59569;SDS011;45393;44.646;10.900;2022-09-27T03:02:00;16.10;;;11.47;;
59569;SDS011;45393;44.646;10.900;2022-09-27T03:04:31;16.90;;;13.23;;
59569;SDS011;45393;44.646;10.900;2022-09-27T03:06:59;13.87;;;10.87;;
59569;SDS011;45393;44.646;10.900;2022-09-27T03:09:39;15.43;;;12.20;;
59569;SDS011;45393;44.646;10.900;2022-09-27T03:12:05;23.17;;;14.83;;
59569;SDS011;45393;44.646;10.900;2022-09-27T03:14:31;18.20;;;13.07;;
59569;SDS011;45393;44.646;10.900;2022-09-27T03:16:57;18.33;;;14.13;;
59569;SDS011;45393;44.646;10.900;2022-09-27T03:19:23;18.50;;;13.90;;
59569;SDS011;45393;44.646;10.900;2022-09-27T03:21:49;19.27;;;14.13;;
59569;SDS011;45393;44.646;10.900;2022-09-27T03:24:15;14.67;;;12.23;;
59569;SDS011;45393;44.646;10.900;2022-09-27T03:26:41;16.73;;;11.27;;
59569;SDS011;45393;44.646;10.900;2022-09-27T03:29:08;16.13;;;12.73;;
59569;SDS011;45393;44.646;10.900;2022-09-27T03:31:34;18.77;;;13.77;;
59569;SDS011;45393;44.646;10.900;2022-09-27T03:34:00;20.30;;;13.77;;
59569;SDS011;45393;44.646;10.900;2022-09-27T03:36:26;16.90;;;13.17;;
59569;SDS011;45393;44.646;10.900;2022-09-27T03:38:52;16.43;;;13.87;;
59569;SDS011;45393;44.646;10.900;2022-09-27T03:41:18;17.40;;;13.97;;
59569;SDS011;45393;44.646;10.900;2022-09-27T03:43:44;16.33;;;12.67;;
59569;SDS011;45393;44.646;10.900;2022-09-27T03:46:11;25.40;;;20.10;;
59569;SDS011;45393;44.646;10.900;2022-09-27T03:48:37;30.47;;;27.00;;
59569;SDS011;45393;44.646;10.900;2022-09-27T03:51:03;22.93;;;19.53;;
59569;SDS011;45393;44.646;10.900;2022-09-27T03:53:29;26.47;;;21.33;;
59569;SDS011;45393;44.646;10.900;2022-09-27T03:55:55;20.70;;;18.07;;
59569;SDS011;45393;44.646;10.900;2022-09-27T03:58:21;22.63;;;17.87;;
59569;SDS011;45393;44.646;10.900;2022-09-27T04:00:47;25.20;;;19.83;;
59569;SDS011;45393;44.646;10.900;2022-09-27T04:03:13;23.30;;;17.53;;
59569;SDS011;45393;44.646;10.900;2022-09-27T04:05:40;30.50;;;22.17;;
59569;SDS011;45393;44.646;10.900;2022-09-27T04:08:06;30.20;;;24.27;;
59569;SDS011;45393;44.646;10.900;2022-09-27T04:10:35;36.90;;;28.53;;
59569;SDS011;45393;44.646;10.900;2022-09-27T04:13:01;29.87;;;26.43;;
59569;SDS011;45393;44.646;10.900;2022-09-27T04:15:27;35.93;;;28.27;;
59569;SDS011;45393;44.646;10.900;2022-09-27T04:17:53;37.90;;;29.13;;
59569;SDS011;45393;44.646;10.900;2022-09-27T04:20:19;37.23;;;30.03;;
59569;SDS011;45393;44.646;10.900;2022-09-27T04:22:45;39.47;;;31.43;;
59569;SDS011;45393;44.646;10.900;2022-09-27T04:25:11;45.97;;;34.67;;
59569;SDS011;45393;44.646;10.900;2022-09-27T04:27:38;43.87;;;33.47;;
59569;SDS011;45393;44.646;10.900;2022-09-27T04:30:07;51.63;;;37.60;;
59569;SDS011;45393;44.646;10.900;2022-09-27T04:32:33;40.33;;;33.20;;
59569;SDS011;45393;44.646;10.900;2022-09-27T04:34:59;49.97;;;37.70;;
59569;SDS011;45393;44.646;10.900;2022-09-27T04:37:44;49.00;;;35.23;;
59569;SDS011;45393;44.646;10.900;2022-09-27T04:40:10;40.33;;;30.73;;
59569;SDS011;45393;44.646;10.900;2022-09-27T04:42:37;40.60;;;30.97;;
59569;SDS011;45393;44.646;10.900;2022-09-27T04:45:03;41.57;;;30.93;;
59569;SDS011;45393;44.646;10.900;2022-09-27T04:47:29;52.70;;;37.00;;
59569;SDS011;45393;44.646;10.900;2022-09-27T04:49:55;39.27;;;31.53;;
59569;SDS011;45393;44.646;10.900;2022-09-27T04:52:22;46.50;;;36.43;;
59569;SDS011;45393;44.646;10.900;2022-09-27T04:54:48;42.17;;;32.60;;
59569;SDS011;45393;44.646;10.900;2022-09-27T04:57:14;41.63;;;32.53;;
59569;SDS011;45393;44.646;10.900;2022-09-27T04:59:40;50.50;;;36.77;;
59569;SDS011;45393;44.646;10.900;2022-09-27T05:02:06;50.40;;;35.73;;
59569;SDS011;45393;44.646;10.900;2022-09-27T05:04:32;45.67;;;33.20;;
59569;SDS011;45393;44.646;10.900;2022-09-27T05:06:58;51.83;;;36.03;;
59569;SDS011;45393;44.646;10.900;2022-09-27T05:09:24;51.33;;;36.93;;
59569;SDS011;45393;44.646;10.900;2022-09-27T05:11:50;41.80;;;31.23;;
59569;SDS011;45393;44.646;10.900;2022-09-27T05:14:17;46.90;;;34.77;;
59569;SDS011;45393;44.646;10.900;2022-09-27T05:16:44;45.20;;;32.37;;
59569;SDS011;45393;44.646;10.900;2022-09-27T05:19:11;42.70;;;33.07;;
59569;SDS011;45393;44.646;10.900;2022-09-27T05:21:37;50.17;;;34.17;;
59569;SDS011;45393;44.646;10.900;2022-09-27T05:24:03;40.17;;;30.37;;
59569;SDS011;45393;44.646;10.900;2022-09-27T05:26:30;41.53;;;29.70;;
59569;SDS011;45393;44.646;10.900;2022-09-27T05:28:56;50.50;;;36.37;;
59569;SDS011;45393;44.646;10.900;2022-09-27T05:31:22;53.27;;;35.83;;
59569;SDS011;45393;44.646;10.900;2022-09-27T05:33:49;57.77;;;38.27;;
59569;SDS011;45393;44.646;10.900;2022-09-27T05:36:15;48.90;;;36.13;;
59569;SDS011;45393;44.646;10.900;2022-09-27T05:38:41;44.40;;;32.87;;
59569;SDS011;45393;44.646;10.900;2022-09-27T05:41:07;56.13;;;38.80;;
59569;SDS011;45393;44.646;10.900;2022-09-27T05:43:33;48.97;;;35.63;;
59569;SDS011;45393;44.646;10.900;2022-09-27T05:46:00;53.07;;;39.50;;
59569;SDS011;45393;44.646;10.900;2022-09-27T05:48:26;53.07;;;38.80;;
59569;SDS011;45393;44.646;10.900;2022-09-27T05:50:54;54.47;;;37.53;;
59569;SDS011;45393;44.646;10.900;2022-09-27T05:53:20;58.13;;;39.77;;
59569;SDS011;45393;44.646;10.900;2022-09-27T05:55:46;53.93;;;37.53;;
59569;SDS011;45393;44.646;10.900;2022-09-27T05:58:13;53.50;;;37.10;;
59569;SDS011;45393;44.646;10.900;2022-09-27T06:00:40;65.27;;;48.57;;
59569;SDS011;45393;44.646;10.900;2022-09-27T06:03:07;57.77;;;41.63;;
59569;SDS011;45393;44.646;10.900;2022-09-27T06:05:34;77.47;;;54.80;;
59569;SDS011;45393;44.646;10.900;2022-09-27T06:08:02;84.00;;;59.87;;
59569;SDS011;45393;44.646;10.900;2022-09-27T06:10:29;88.40;;;62.13;;
59569;SDS011;45393;44.646;10.900;2022-09-27T06:12:59;77.43;;;55.30;;
59569;SDS011;45393;44.646;10.900;2022-09-27T06:15:26;69.77;;;50.60;;
59569;SDS011;45393;44.646;10.900;2022-09-27T06:17:52;86.50;;;57.47;;
59569;SDS011;45393;44.646;10.900;2022-09-27T06:20:19;73.33;;;53.77;;
59569;SDS011;45393;44.646;10.900;2022-09-27T06:22:45;75.50;;;51.87;;
59569;SDS011;45393;44.646;10.900;2022-09-27T06:25:11;67.47;;;48.73;;
59569;SDS011;45393;44.646;10.900;2022-09-27T06:27:37;62.93;;;47.33;;
59569;SDS011;45393;44.646;10.900;2022-09-27T06:30:04;73.23;;;51.97;;
59569;SDS011;45393;44.646;10.900;2022-09-27T06:32:30;84.57;;;52.17;;
59569;SDS011;45393;44.646;10.900;2022-09-27T06:34:56;71.50;;;51.27;;
59569;SDS011;45393;44.646;10.900;2022-09-27T06:37:26;64.80;;;48.27;;
59569;SDS011;45393;44.646;10.900;2022-09-27T06:39:52;57.90;;;44.67;;
59569;SDS011;45393;44.646;10.900;2022-09-27T06:42:19;67.87;;;49.30;;
59569;SDS011;45393;44.646;10.900;2022-09-27T06:44:46;60.20;;;43.27;;
59569;SDS011;45393;44.646;10.900;2022-09-27T06:47:13;59.90;;;41.23;;
59569;SDS011;45393;44.646;10.900;2022-09-27T06:49:39;53.33;;;39.27;;
59569;SDS011;45393;44.646;10.900;2022-09-27T06:52:06;53.20;;;39.33;;
59569;SDS011;45393;44.646;10.900;2022-09-27T06:54:32;49.70;;;36.70;;
59569;SDS011;45393;44.646;10.900;2022-09-27T06:56:58;51.60;;;36.47;;
59569;SDS011;45393;44.646;10.900;2022-09-27T06:59:24;52.67;;;36.67;;
59569;SDS011;45393;44.646;10.900;2022-09-27T07:02:08;50.67;;;36.20;;
59569;SDS011;45393;44.646;10.900;2022-09-27T07:04:35;49.00;;;35.40;;
59569;SDS011;45393;44.646;10.900;2022-09-27T07:07:01;50.53;;;35.50;;
59569;SDS011;45393;44.646;10.900;2022-09-27T07:09:27;46.10;;;35.37;;
59569;SDS011;45393;44.646;10.900;2022-09-27T07:11:53;48.87;;;35.33;;
59569;SDS011;45393;44.646;10.900;2022-09-27T07:14:20;45.93;;;34.50;;
59569;SDS011;45393;44.646;10.900;2022-09-27T07:16:46;45.77;;;32.63;;
59569;SDS011;45393;44.646;10.900;2022-09-27T07:19:12;48.70;;;34.87;;
59569;SDS011;45393;44.646;10.900;2022-09-27T07:21:39;44.83;;;33.77;;
59569;SDS011;45393;44.646;10.900;2022-09-27T07:24:05;45.87;;;32.07;;
59569;SDS011;45393;44.646;10.900;2022-09-27T07:26:31;48.13;;;34.20;;
59569;SDS011;45393;44.646;10.900;2022-09-27T07:28:57;41.17;;;29.20;;
59569;SDS011;45393;44.646;10.900;2022-09-27T07:31:24;39.43;;;27.60;;
59569;SDS011;45393;44.646;10.900;2022-09-27T07:33:50;37.03;;;26.70;;
59569;SDS011;45393;44.646;10.900;2022-09-27T07:36:17;32.47;;;25.40;;
59569;SDS011;45393;44.646;10.900;2022-09-27T07:38:43;33.57;;;23.67;;
59569;SDS011;45393;44.646;10.900;2022-09-27T07:41:10;35.93;;;24.97;;
59569;SDS011;45393;44.646;10.900;2022-09-27T07:43:38;34.90;;;24.13;;
59569;SDS011;45393;44.646;10.900;2022-09-27T07:46:04;27.90;;;20.60;;
59569;SDS011;45393;44.646;10.900;2022-09-27T07:48:30;26.33;;;19.23;;
59569;SDS011;45393;44.646;10.900;2022-09-27T07:50:56;25.33;;;17.43;;
59569;SDS011;45393;44.646;10.900;2022-09-27T07:53:22;28.63;;;19.27;;
59569;SDS011;45393;44.646;10.900;2022-09-27T07:55:49;32.77;;;20.77;;
59569;SDS011;45393;44.646;10.900;2022-09-27T07:58:17;26.33;;;17.67;;
59569;SDS011;45393;44.646;10.900;2022-09-27T08:00:43;24.23;;;17.47;;
59569;SDS011;45393;44.646;10.900;2022-09-27T08:03:10;23.43;;;16.10;;
59569;SDS011;45393;44.646;10.900;2022-09-27T08:05:39;27.60;;;16.50;;
59569;SDS011;45393;44.646;10.900;2022-09-27T08:08:06;28.27;;;17.37;;
59569;SDS011;45393;44.646;10.900;2022-09-27T08:10:33;27.83;;;15.47;;
59569;SDS011;45393;44.646;10.900;2022-09-27T08:12:59;21.70;;;15.43;;
59569;SDS011;45393;44.646;10.900;2022-09-27T08:15:27;21.67;;;15.70;;
59569;SDS011;45393;44.646;10.900;2022-09-27T08:17:53;18.13;;;13.50;;
59569;SDS011;45393;44.646;10.900;2022-09-27T08:20:20;19.10;;;12.87;;
59569;SDS011;45393;44.646;10.900;2022-09-27T08:22:46;21.90;;;15.47;;
59569;SDS011;45393;44.646;10.900;2022-09-27T08:25:12;23.17;;;14.17;;
59569;SDS011;45393;44.646;10.900;2022-09-27T08:27:39;21.97;;;14.30;;
59569;SDS011;45393;44.646;10.900;2022-09-27T08:30:05;19.67;;;13.57;;
59569;SDS011;45393;44.646;10.900;2022-09-27T08:32:31;20.60;;;14.43;;
59569;SDS011;45393;44.646;10.900;2022-09-27T08:34:58;22.00;;;14.20;;
59569;SDS011;45393;44.646;10.900;2022-09-27T08:37:24;18.67;;;13.37;;
59569;SDS011;45393;44.646;10.900;2022-09-27T08:39:50;15.67;;;11.40;;
59569;SDS011;45393;44.646;10.900;2022-09-27T08:42:38;20.60;;;13.07;;
59569;SDS011;45393;44.646;10.900;2022-09-27T08:45:21;18.80;;;13.43;;
59569;SDS011;45393;44.646;10.900;2022-09-27T08:47:53;17.23;;;11.43;;
59569;SDS011;45393;44.646;10.900;2022-09-27T08:50:29;18.97;;;11.90;;
59569;SDS011;45393;44.646;10.900;2022-09-27T08:53:03;17.67;;;11.30;;
59569;SDS011;45393;44.646;10.900;2022-09-27T08:55:32;18.57;;;11.30;;
59569;SDS011;45393;44.646;10.900;2022-09-27T08:58:01;17.50;;;10.83;;
59569;SDS011;45393;44.646;10.900;2022-09-27T09:00:29;17.43;;;12.00;;
59569;SDS011;45393;44.646;10.900;2022-09-27T09:02:56;17.30;;;11.40;;
59569;SDS011;45393;44.646;10.900;2022-09-27T09:05:27;15.60;;;10.70;;
59569;SDS011;45393;44.646;10.900;2022-09-27T09:13:21;13.70;;;9.93;;
59569;SDS011;45393;44.646;10.900;2022-09-27T09:15:53;18.23;;;10.93;;
59569;SDS011;45393;44.646;10.900;2022-09-27T09:18:28;15.77;;;10.13;;
59569;SDS011;45393;44.646;10.900;2022-09-27T09:23:58;14.77;;;8.37;;
59569;SDS011;45393;44.646;10.900;2022-09-27T09:34:08;7.83;;;5.03;;
59569;SDS011;45393;44.646;10.900;2022-09-27T09:36:53;9.20;;;4.17;;
59569;SDS011;45393;44.646;10.900;2022-09-27T09:42:00;13.93;;;5.77;;
59569;SDS011;45393;44.646;10.900;2022-09-27T09:44:28;11.07;;;4.97;;
59569;SDS011;45393;44.646;10.900;2022-09-27T09:46:58;9.90;;;4.70;;
59569;SDS011;45393;44.646;10.900;2022-09-27T09:51:52;7.83;;;3.90;;
59569;SDS011;45393;44.646;10.900;2022-09-27T09:54:25;7.40;;;4.07;;
59569;SDS011;45393;44.646;10.900;2022-09-27T09:57:02;9.33;;;3.90;;
59569;SDS011;45393;44.646;10.900;2022-09-27T09:59:29;5.57;;;2.50;;
59569;SDS011;45393;44.646;10.900;2022-09-27T10:01:58;8.03;;;2.50;;
59569;SDS011;45393;44.646;10.900;2022-09-27T10:04:28;5.00;;;2.13;;
59569;SDS011;45393;44.646;10.900;2022-09-27T10:06:58;9.43;;;2.13;;
59569;SDS011;45393;44.646;10.900;2022-09-27T10:09:25;7.23;;;2.23;;
59569;SDS011;45393;44.646;10.900;2022-09-27T10:11:51;6.00;;;2.00;;
59569;SDS011;45393;44.646;10.900;2022-09-27T10:14:19;8.10;;;2.20;;
59569;SDS011;45393;44.646;10.900;2022-09-27T10:16:46;9.53;;;2.20;;
59569;SDS011;45393;44.646;10.900;2022-09-27T10:19:17;8.87;;;2.87;;
59569;SDS011;45393;44.646;10.900;2022-09-27T10:21:47;5.90;;;2.33;;
59569;SDS011;45393;44.646;10.900;2022-09-27T10:24:15;5.90;;;2.30;;
59569;SDS011;45393;44.646;10.900;2022-09-27T10:26:43;6.37;;;2.10;;
59569;SDS011;45393;44.646;10.900;2022-09-27T10:29:13;4.93;;;2.10;;
59569;SDS011;45393;44.646;10.900;2022-09-27T10:31:40;7.93;;;2.47;;
59569;SDS011;45393;44.646;10.900;2022-09-27T10:37:09;7.20;;;2.80;;
59569;SDS011;45393;44.646;10.900;2022-09-27T10:39:41;8.90;;;2.90;;
59569;SDS011;45393;44.646;10.900;2022-09-27T10:44:46;7.03;;;3.17;;
59569;SDS011;45393;44.646;10.900;2022-09-27T10:47:12;8.63;;;3.07;;
59569;SDS011;45393;44.646;10.900;2022-09-27T10:49:43;7.43;;;2.73;;
59569;SDS011;45393;44.646;10.900;2022-09-27T10:54:39;8.20;;;3.50;;
59569;SDS011;45393;44.646;10.900;2022-09-27T10:57:15;9.07;;;3.50;;
59569;SDS011;45393;44.646;10.900;2022-09-27T10:59:43;9.30;;;3.67;;
59569;SDS011;45393;44.646;10.900;2022-09-27T11:05:07;8.27;;;3.60;;
59569;SDS011;45393;44.646;10.900;2022-09-27T11:07:36;7.20;;;3.60;;
59569;SDS011;45393;44.646;10.900;2022-09-27T11:10:06;10.93;;;2.80;;
59569;SDS011;45393;44.646;10.900;2022-09-27T11:12:46;7.90;;;2.90;;
59569;SDS011;45393;44.646;10.900;2022-09-27T11:15:25;8.00;;;2.23;;
59569;SDS011;45393;44.646;10.900;2022-09-27T11:20:30;6.07;;;2.70;;
59569;SDS011;45393;44.646;10.900;2022-09-27T11:35:57;7.53;;;2.83;;
59569;SDS011;45393;44.646;10.900;2022-09-27T11:46:33;8.83;;;3.37;;
59569;SDS011;45393;44.646;10.900;2022-09-27T11:51:57;8.73;;;3.73;;
59569;SDS011;45393;44.646;10.900;2022-09-27T11:54:39;10.37;;;3.60;;
59569;SDS011;45393;44.646;10.900;2022-09-27T11:57:14;8.47;;;3.20;;
59569;SDS011;45393;44.646;10.900;2022-09-27T11:59:53;6.73;;;3.10;;
59569;SDS011;45393;44.646;10.900;2022-09-27T12:10:17;6.13;;;2.93;;
59569;SDS011;45393;44.646;10.900;2022-09-27T12:12:45;8.43;;;3.20;;
59569;SDS011;45393;44.646;10.900;2022-09-27T12:15:27;7.53;;;3.27;;
59569;SDS011;45393;44.646;10.900;2022-09-27T12:17:57;7.50;;;3.33;;
59569;SDS011;45393;44.646;10.900;2022-09-27T12:20:27;5.57;;;2.67;;
59569;SDS011;45393;44.646;10.900;2022-09-27T12:22:55;7.43;;;2.70;;
59569;SDS011;45393;44.646;10.900;2022-09-27T12:25:22;5.40;;;2.30;;
59569;SDS011;45393;44.646;10.900;2022-09-27T12:30:47;5.87;;;2.33;;
59569;SDS011;45393;44.646;10.900;2022-09-27T12:36:00;11.07;;;3.30;;
59569;SDS011;45393;44.646;10.900;2022-09-27T12:38:33;8.47;;;2.50;;
59569;SDS011;45393;44.646;10.900;2022-09-27T12:41:00;5.17;;;2.40;;
59569;SDS011;45393;44.646;10.900;2022-09-27T12:43:27;5.53;;;2.70;;
59569;SDS011;45393;44.646;10.900;2022-09-27T12:51:09;9.60;;;3.60;;
59569;SDS011;45393;44.646;10.900;2022-09-27T12:54:22;8.23;;;2.80;;
59569;SDS011;45393;44.646;10.900;2022-09-27T13:11:57;9.17;;;3.07;;
59569;SDS011;45393;44.646;10.900;2022-09-27T13:14:27;6.07;;;2.83;;
59569;SDS011;45393;44.646;10.900;2022-09-27T13:16:54;6.60;;;2.83;;
59569;SDS011;45393;44.646;10.900;2022-09-27T13:22:36;6.37;;;2.20;;
59569;SDS011;45393;44.646;10.900;2022-09-27T13:24:54;4.20;;;1.60;;
59569;SDS011;45393;44.646;10.900;2022-09-27T13:32:37;5.17;;;1.90;;
59569;SDS011;45393;44.646;10.900;2022-09-27T13:35:21;8.13;;;1.67;;
59569;SDS011;45393;44.646;10.900;2022-09-27T13:37:52;6.23;;;2.30;;
59569;SDS011;45393;44.646;10.900;2022-09-27T13:40:25;6.77;;;2.20;;
59569;SDS011;45393;44.646;10.900;2022-09-27T13:45:29;6.43;;;2.30;;
59569;SDS011;45393;44.646;10.900;2022-09-27T13:47:57;8.83;;;2.27;;
59569;SDS011;45393;44.646;10.900;2022-09-27T13:50:24;6.43;;;2.43;;
59569;SDS011;45393;44.646;10.900;2022-09-27T13:52:56;4.27;;;1.87;;
59569;SDS011;45393;44.646;10.900;2022-09-27T13:55:56;5.23;;;1.63;;
59569;SDS011;45393;44.646;10.900;2022-09-27T14:00:46;6.80;;;1.80;;
59569;SDS011;45393;44.646;10.900;2022-09-27T14:03:14;6.70;;;1.67;;
59569;SDS011;45393;44.646;10.900;2022-09-27T14:05:46;5.97;;;1.73;;
59569;SDS011;45393;44.646;10.900;2022-09-27T14:08:18;5.03;;;1.67;;
59569;SDS011;45393;44.646;10.900;2022-09-27T14:10:45;5.47;;;1.90;;
59569;SDS011;45393;44.646;10.900;2022-09-27T14:13:12;8.30;;;1.77;;
59569;SDS011;45393;44.646;10.900;2022-09-27T14:15:40;9.43;;;2.10;;
59569;SDS011;45393;44.646;10.900;2022-09-27T14:18:09;6.07;;;1.90;;
59569;SDS011;45393;44.646;10.900;2022-09-27T14:20:42;5.77;;;2.00;;
59569;SDS011;45393;44.646;10.900;2022-09-27T14:23:18;6.87;;;2.27;;
59569;SDS011;45393;44.646;10.900;2022-09-27T14:25:46;5.57;;;1.90;;
59569;SDS011;45393;44.646;10.900;2022-09-27T14:28:22;5.83;;;1.90;;
59569;SDS011;45393;44.646;10.900;2022-09-27T14:33:34;6.00;;;1.73;;
59569;SDS011;45393;44.646;10.900;2022-09-27T14:36:02;5.00;;;1.53;;
59569;SDS011;45393;44.646;10.900;2022-09-27T14:38:50;6.13;;;1.83;;
59569;SDS011;45393;44.646;10.900;2022-09-27T14:41:16;4.90;;;1.67;;
59569;SDS011;45393;44.646;10.900;2022-09-27T14:43:43;4.73;;;1.63;;
59569;SDS011;45393;44.646;10.900;2022-09-27T14:46:22;5.30;;;2.10;;
59569;SDS011;45393;44.646;10.900;2022-09-27T14:48:49;5.03;;;1.60;;
59569;SDS011;45393;44.646;10.900;2022-09-27T14:51:17;9.07;;;1.83;;
59569;SDS011;45393;44.646;10.900;2022-09-27T14:53:48;6.77;;;1.57;;
59569;SDS011;45393;44.646;10.900;2022-09-27T14:56:21;5.93;;;1.87;;
59569;SDS011;45393;44.646;10.900;2022-09-27T14:58:51;4.63;;;1.60;;
59569;SDS011;45393;44.646;10.900;2022-09-27T15:01:20;4.73;;;1.60;;
59569;SDS011;45393;44.646;10.900;2022-09-27T15:03:47;4.87;;;1.67;;
59569;SDS011;45393;44.646;10.900;2022-09-27T15:06:15;2.97;;;1.37;;
59569;SDS011;45393;44.646;10.900;2022-09-27T15:08:41;5.63;;;1.70;;
59569;SDS011;45393;44.646;10.900;2022-09-27T15:11:11;6.53;;;1.50;;
59569;SDS011;45393;44.646;10.900;2022-09-27T15:13:37;4.97;;;1.37;;
59569;SDS011;45393;44.646;10.900;2022-09-27T15:16:10;6.53;;;1.83;;
59569;SDS011;45393;44.646;10.900;2022-09-27T15:18:41;6.00;;;1.70;;
59569;SDS011;45393;44.646;10.900;2022-09-27T15:21:12;4.47;;;1.70;;
59569;SDS011;45393;44.646;10.900;2022-09-27T15:23:42;7.07;;;1.60;;
59569;SDS011;45393;44.646;10.900;2022-09-27T15:26:16;7.53;;;1.87;;
59569;SDS011;45393;44.646;10.900;2022-09-27T15:28:44;4.57;;;1.77;;
59569;SDS011;45393;44.646;10.900;2022-09-27T15:31:11;6.53;;;1.87;;
59569;SDS011;45393;44.646;10.900;2022-09-27T15:33:37;7.20;;;1.60;;
59569;SDS011;45393;44.646;10.900;2022-09-27T15:36:08;5.60;;;1.80;;
59569;SDS011;45393;44.646;10.900;2022-09-27T15:38:38;5.77;;;1.43;;
59569;SDS011;45393;44.646;10.900;2022-09-27T15:43:41;5.30;;;1.77;;
59569;SDS011;45393;44.646;10.900;2022-09-27T15:46:32;5.93;;;1.50;;
59569;SDS011;45393;44.646;10.900;2022-09-27T15:51:50;3.67;;;1.40;;
59569;SDS011;45393;44.646;10.900;2022-09-27T15:54:17;3.80;;;1.40;;
59569;SDS011;45393;44.646;10.900;2022-09-27T15:56:44;5.30;;;1.67;;
59569;SDS011;45393;44.646;10.900;2022-09-27T15:59:15;6.43;;;1.70;;
59569;SDS011;45393;44.646;10.900;2022-09-27T16:01:42;3.33;;;1.30;;
59569;SDS011;45393;44.646;10.900;2022-09-27T16:04:09;4.30;;;1.50;;
59569;SDS011;45393;44.646;10.900;2022-09-27T16:06:35;4.43;;;1.57;;
59569;SDS011;45393;44.646;10.900;2022-09-27T16:09:01;5.90;;;1.70;;
59569;SDS011;45393;44.646;10.900;2022-09-27T16:11:28;4.40;;;1.40;;
59569;SDS011;45393;44.646;10.900;2022-09-27T16:13:54;6.07;;;1.50;;
59569;SDS011;45393;44.646;10.900;2022-09-27T16:16:20;8.83;;;2.00;;
59569;SDS011;45393;44.646;10.900;2022-09-27T16:18:47;4.20;;;1.60;;
59569;SDS011;45393;44.646;10.900;2022-09-27T16:21:14;6.57;;;2.00;;
59569;SDS011;45393;44.646;10.900;2022-09-27T16:23:40;5.57;;;1.80;;
59569;SDS011;45393;44.646;10.900;2022-09-27T16:26:06;3.73;;;1.70;;
59569;SDS011;45393;44.646;10.900;2022-09-27T16:28:32;5.27;;;1.43;;
59569;SDS011;45393;44.646;10.900;2022-09-27T16:31:02;5.80;;;1.70;;
59569;SDS011;45393;44.646;10.900;2022-09-27T16:33:29;7.57;;;1.60;;
59569;SDS011;45393;44.646;10.900;2022-09-27T16:35:56;15.27;;;1.90;;
59569;SDS011;45393;44.646;10.900;2022-09-27T16:38:23;6.17;;;1.93;;
59569;SDS011;45393;44.646;10.900;2022-09-27T16:40:51;5.67;;;1.77;;
59569;SDS011;45393;44.646;10.900;2022-09-27T16:43:17;6.23;;;2.10;;
59569;SDS011;45393;44.646;10.900;2022-09-27T16:45:44;7.63;;;1.53;;
59569;SDS011;45393;44.646;10.900;2022-09-27T16:48:10;6.00;;;1.67;;
59569;SDS011;45393;44.646;10.900;2022-09-27T16:50:36;4.47;;;1.50;;
59569;SDS011;45393;44.646;10.900;2022-09-27T16:53:21;4.53;;;1.67;;
59569;SDS011;45393;44.646;10.900;2022-09-27T16:55:48;5.33;;;1.83;;
59569;SDS011;45393;44.646;10.900;2022-09-27T16:58:14;5.73;;;1.67;;
59569;SDS011;45393;44.646;10.900;2022-09-27T17:00:40;4.80;;;1.87;;
59569;SDS011;45393;44.646;10.900;2022-09-27T17:03:07;9.27;;;2.20;;
59569;SDS011;45393;44.646;10.900;2022-09-27T17:05:33;6.60;;;1.70;;
59569;SDS011;45393;44.646;10.900;2022-09-27T17:08:00;5.40;;;1.43;;